createdAt,value
2023-03-29T00:05:06.986Z,3.50
2023-03-29T00:12:08.786Z,3.47
2023-03-29T00:19:10.811Z,4.07
2023-03-29T00:26:12.666Z,3.22
2023-03-29T00:33:15.104Z,2.60
2023-03-29T00:40:17.201Z,3.28
2023-03-29T00:47:21.844Z,4.40
2023-03-29T00:54:23.720Z,3.63
2023-03-29T01:01:34.459Z,3.97
2023-03-29T01:08:39.688Z,5.40
2023-03-29T01:15:43.350Z,4.35
2023-03-29T01:23:03.856Z,3.30
2023-03-29T01:30:08.037Z,3.70
2023-03-29T01:37:18.320Z,4.25
2023-03-29T01:44:25.988Z,4.00
2023-03-29T01:51:27.932Z,3.63
2023-03-29T01:58:34.149Z,3.67
2023-03-29T02:05:37.710Z,3.83
2023-03-29T02:12:39.547Z,4.40
2023-03-29T02:19:41.371Z,3.33
2023-03-29T02:26:43.157Z,4.10
2023-03-29T02:34:03.741Z,3.90
2023-03-29T02:41:06.001Z,4.38
2023-03-29T02:48:10.425Z,3.92
2023-03-29T02:55:15.290Z,4.93
2023-03-29T03:02:18.252Z,4.78
2023-03-29T03:09:20.187Z,5.18
2023-03-29T03:16:22.297Z,4.97
2023-03-29T03:23:25.217Z,4.05
2023-03-29T03:30:27.497Z,6.15
2023-03-29T03:37:29.258Z,5.28
2023-03-29T03:44:31.295Z,4.95
2023-03-29T03:51:33.131Z,5.63
2023-03-29T03:58:35.855Z,4.40
2023-03-29T04:05:41.753Z,5.07
2023-03-29T04:12:43.581Z,4.97
2023-03-29T04:19:45.612Z,4.82
2023-03-29T04:26:47.985Z,4.43
2023-03-29T04:33:49.858Z,5.55
2023-03-29T04:40:51.628Z,2.95
2023-03-29T04:47:54.295Z,5.55
2023-03-29T04:54:56.127Z,5.55
2023-03-29T05:01:58.216Z,4.38
2023-03-29T05:09:01.366Z,6.28
2023-03-29T05:16:04.127Z,5.05
2023-03-29T05:23:05.874Z,6.05
2023-03-29T05:30:09.186Z,6.10
2023-03-29T05:37:11.015Z,5.55
2023-03-29T05:44:12.753Z,6.78
2023-03-29T05:51:14.937Z,5.00
2023-03-29T05:58:18.244Z,5.43
2023-03-29T06:05:20.425Z,5.25
2023-03-29T06:12:22.152Z,5.05
2023-03-29T06:19:24.483Z,5.22
2023-03-29T06:26:28.017Z,4.55
2023-03-29T06:33:30.797Z,3.75
2023-03-29T06:40:33.651Z,4.30
2023-03-29T06:47:35.478Z,4.90
2023-03-29T06:54:37.472Z,4.43
2023-03-29T07:01:39.387Z,4.57
2023-03-29T07:08:43.959Z,4.15
2023-03-29T07:15:46.041Z,4.32
2023-03-29T07:22:48.382Z,3.00
2023-03-29T07:29:50.325Z,3.42
2023-03-29T07:36:52.310Z,2.92
2023-03-29T07:43:54.447Z,3.97
2023-03-29T07:50:57.265Z,3.55
2023-03-29T07:57:59.386Z,3.78
2023-03-29T08:05:01.823Z,3.25
2023-03-29T08:12:03.681Z,2.97
2023-03-29T08:19:05.577Z,3.20
2023-03-29T08:26:08.978Z,2.80
2023-03-29T08:33:10.857Z,3.03
2023-03-29T08:40:18.362Z,3.00
2023-03-29T08:47:35.435Z,3.05
2023-03-29T08:54:45.941Z,2.42
2023-03-29T09:01:49.272Z,2.92
2023-03-29T09:08:52.481Z,3.30
2023-03-29T09:16:01.642Z,2.92
2023-03-29T09:23:25.838Z,2.30
2023-03-29T09:30:30.950Z,3.03
2023-03-29T09:37:33.854Z,2.25
2023-03-29T09:44:38.516Z,2.50
2023-03-29T09:51:42.107Z,2.70
2023-03-29T09:58:44.496Z,2.38
2023-03-29T10:05:47.454Z,2.90
2023-03-29T10:12:50.632Z,2.58
2023-03-29T10:19:53.370Z,2.80
2023-03-29T10:26:57.540Z,2.67
2023-03-29T10:34:03.226Z,3.08
2023-03-29T10:41:12.341Z,2.90
2023-03-29T10:48:16.404Z,2.78
2023-03-29T10:55:19.675Z,3.33
2023-03-29T11:02:27.290Z,3.47
2023-03-29T11:09:58.276Z,2.90
2023-03-29T11:17:05.852Z,2.80
2023-03-29T11:24:17.389Z,3.08
2023-03-29T11:31:25.178Z,2.38
2023-03-29T11:38:35.854Z,2.72
2023-03-29T11:45:44.979Z,2.45
2023-03-29T11:52:53.613Z,2.63
2023-03-29T11:59:55.470Z,2.70
2023-03-29T12:07:05.193Z,3.10
2023-03-29T12:14:06.958Z,2.30
2023-03-29T12:21:28.890Z,2.08
2023-03-29T12:28:39.714Z,3.10
2023-03-29T12:35:52.811Z,3.05
2023-03-29T12:43:00.001Z,3.40
2023-03-29T12:50:02.620Z,2.08
2023-03-29T12:57:41.087Z,2.60
2023-03-29T13:04:43.300Z,2.40
2023-03-29T13:11:45.952Z,3.13
2023-03-29T13:18:47.836Z,3.30
2023-03-29T13:26:08.444Z,2.35
2023-03-29T13:33:13.505Z,2.90
2023-03-29T13:40:30.403Z,3.22
2023-03-29T13:47:32.705Z,2.50
2023-03-29T13:54:54.782Z,2.65
2023-03-29T14:01:58.195Z,2.35
2023-03-29T14:09:02.591Z,2.40
2023-03-29T14:16:08.757Z,2.33
2023-03-29T14:23:14.334Z,2.63
2023-03-29T14:30:19.138Z,3.22
2023-03-29T14:37:26.495Z,2.80
2023-03-29T14:44:33.304Z,3.72
2023-03-29T14:51:36.278Z,2.65
2023-03-29T14:58:38.214Z,2.80
2023-03-29T15:05:41.315Z,2.70
2023-03-29T15:12:43.248Z,3.55
2023-03-29T15:19:45.021Z,3.03
2023-03-29T15:26:57.745Z,2.88
2023-03-29T15:34:09.524Z,4.60
2023-03-29T15:41:11.952Z,3.50
2023-03-29T15:48:21.898Z,3.55
2023-03-29T15:55:26.375Z,3.20
2023-03-29T16:02:28.383Z,3.47
2023-03-29T16:09:30.976Z,4.10
2023-03-29T16:16:33.089Z,3.80
2023-03-29T16:23:34.990Z,5.68
2023-03-29T16:30:37.803Z,5.68
2023-03-29T16:37:39.858Z,6.95
2023-03-29T16:44:41.781Z,8.90
2023-03-29T16:51:44.080Z,10.93
2023-03-29T16:58:46.233Z,17.83
2023-03-29T17:05:48.746Z,27.73
2023-03-29T17:12:51.137Z,32.53
2023-03-29T17:19:53.090Z,21.27
2023-03-29T17:26:55.062Z,19.27
2023-03-29T17:33:57.521Z,20.75
2023-03-29T17:40:59.791Z,21.67
2023-03-29T17:48:06.083Z,23.42
2023-03-29T17:55:14.027Z,29.95
2023-03-29T18:02:25.371Z,31.48
2023-03-29T18:09:30.775Z,34.33
2023-03-29T18:16:33.828Z,38.55
2023-03-29T18:23:36.493Z,38.33
2023-03-29T18:30:38.692Z,35.65
2023-03-29T18:37:41.255Z,28.75
2023-03-29T18:44:43.858Z,22.83
2023-03-29T18:51:48.391Z,24.60
2023-03-29T18:58:51.033Z,22.17
2023-03-29T19:05:56.046Z,13.32
2023-03-29T19:12:58.517Z,14.13
2023-03-29T19:20:01.536Z,11.65
2023-03-29T19:27:07.717Z,11.07
2023-03-29T19:34:11.593Z,11.45
2023-03-29T19:41:14.406Z,13.32
2023-03-29T19:48:22.204Z,12.68
2023-03-29T19:55:27.090Z,11.63
2023-03-29T20:02:28.954Z,12.05
2023-03-29T20:09:31.674Z,13.07
2023-03-29T20:16:44.775Z,14.27
2023-03-29T20:23:53.236Z,14.57
2023-03-29T20:30:58.195Z,12.75
2023-03-29T20:38:02.680Z,11.52
2023-03-29T20:45:07.199Z,10.70
2023-03-29T20:52:14.618Z,9.15
2023-03-29T20:59:18.000Z,8.00
2023-03-29T21:06:22.961Z,7.65
2023-03-29T21:13:25.386Z,8.60
2023-03-29T21:20:27.858Z,8.50
2023-03-29T21:27:29.729Z,8.20
2023-03-29T21:34:31.600Z,8.02
2023-03-29T21:41:33.419Z,8.73
2023-03-29T21:48:35.616Z,8.27
2023-03-29T21:55:37.396Z,7.63
2023-03-29T22:02:39.347Z,7.22
2023-03-29T22:09:42.570Z,8.88
2023-03-29T22:16:45.911Z,8.02
2023-03-29T22:23:48.518Z,6.70
2023-03-29T22:30:50.356Z,6.82
2023-03-29T22:37:52.255Z,7.00
2023-03-29T22:44:54.019Z,7.53
2023-03-29T22:51:56.043Z,9.05
2023-03-29T22:58:57.870Z,8.95
2023-03-29T23:06:02.490Z,8.00
2023-03-29T23:13:09.908Z,9.27
2023-03-29T23:20:12.029Z,8.60
2023-03-29T23:27:14.217Z,9.40
2023-03-29T23:34:16.098Z,9.07
2023-03-29T23:41:18.035Z,9.43
2023-03-29T23:48:21.115Z,9.23
2023-03-29T23:55:22.898Z,9.40
